Time;durP1;ratioP1;P1;durP2;ratioP2;P2;SDS_P1;SDS_P2;PMS_P1;PMS_P2;Temp;Humidity;BMP_temperature;BMP_pressure;BME280_temperature;BME280_humidity;BME280_pressure;Samples;Min_cycle;Max_cycle;Signal;HPM_P1;HPM_P2
2021/12/13 00:02:00;;;;;;;120.75;52.88;;;;;;;;;;5049269;28;20025;-74
2021/12/13 00:04:29;;;;;;;99.85;49.80;;;;;;;;;;5038888;28;20029;-74
2021/12/13 00:06:57;;;;;;;76.10;40.28;;;;;;;;;;5031194;28;20029;-74
2021/12/13 00:09:25;;;;;;;60.03;33.13;;;;;;;;;;5049458;28;20499;-74
2021/12/13 00:11:54;;;;;;;65.53;30.35;;;;;;;;;;5049929;28;20036;-74
2021/12/13 00:14:22;;;;;;;59.88;31.88;;;;;;;;;;5043832;28;20088;-74
2021/12/13 00:16:50;;;;;;;57.63;31.30;;;;;;;;;;5050434;28;20036;-74
2021/12/13 00:19:25;;;;;;;60.67;32.65;;;;;;;;;;5049988;28;20135;-74
2021/12/13 00:21:57;;;;;;;57.70;32.97;;;;;;;;;;5050296;28;20040;-75
2021/12/13 00:24:27;;;;;;;45.20;24.20;;;;;;;;;;5040087;28;20034;-74
2021/12/13 00:27:00;;;;;;;60.72;33.40;;;;;;;;;;5030525;28;20036;-74
2021/12/13 00:29:33;;;;;;;65.65;32.40;;;;;;;;;;5029966;28;20683;-74
2021/12/13 00:32:06;;;;;;;56.78;30.42;;;;;;;;;;5038268;28;20021;-74
2021/12/13 00:34:34;;;;;;;50.28;29.40;;;;;;;;;;5044701;28;20439;-74
2021/12/13 00:37:10;;;;;;;51.50;25.63;;;;;;;;;;5046402;28;20108;-74
2021/12/13 00:39:45;;;;;;;49.80;27.15;;;;;;;;;;5030799;28;20859;-74
2021/12/13 00:42:12;;;;;;;48.83;25.38;;;;;;;;;;5028533;28;20037;-74
2021/12/13 00:44:41;;;;;;;45.97;25.30;;;;;;;;;;5042759;28;20100;-74
2021/12/13 00:47:16;;;;;;;43.20;24.77;;;;;;;;;;5045545;28;20513;-74
2021/12/13 00:49:45;;;;;;;45.90;25.65;;;;;;;;;;5049329;28;20083;-74
2021/12/13 00:52:14;;;;;;;52.85;25.65;;;;;;;;;;5042433;28;20061;-74
2021/12/13 00:54:40;;;;;;;52.38;28.70;;;;;;;;;;5028609;28;20069;-74
2021/12/13 00:57:24;;;;;;;58.40;33.00;;;;;;;;;;5049085;28;20041;-74
2021/12/13 00:59:55;;;;;;;57.50;30.40;;;;;;;;;;5049565;28;20098;-74
2021/12/13 01:02:27;;;;;;;55.42;29.23;;;;;;;;;;5049185;28;20115;-74
2021/12/13 01:05:11;;;;;;;54.83;28.23;;;;;;;;;;5049891;28;20146;-74
2021/12/13 01:07:52;;;;;;;58.10;33.05;;;;;;;;;;5047780;28;20032;-74
2021/12/13 01:10:37;;;;;;;53.33;27.63;;;;;;;;;;5049022;28;20066;-74
2021/12/13 01:13:05;;;;;;;55.85;28.98;;;;;;;;;;5045285;28;20120;-74
2021/12/13 01:15:37;;;;;;;44.85;27.17;;;;;;;;;;5048182;28;20882;-74
2021/12/13 01:18:27;;;;;;;42.65;24.48;;;;;;;;;;5048781;28;20574;-74
2021/12/13 01:23:39;;;;;;;39.60;22.35;;;;;;;;;;5028234;28;20048;-74
2021/12/13 01:28:46;;;;;;;42.03;25.35;;;;;;;;;;5029419;28;20079;-74
2021/12/13 01:31:15;;;;;;;37.38;21.52;;;;;;;;;;5029434;28;20841;-74
2021/12/13 01:33:44;;;;;;;40.55;22.33;;;;;;;;;;5042523;28;20033;-74
2021/12/13 01:36:11;;;;;;;36.22;21.77;;;;;;;;;;5048702;28;20075;-74
2021/12/13 01:38:45;;;;;;;45.20;28.85;;;;;;;;;;5041528;28;20522;-74
2021/12/13 01:41:31;;;;;;;37.60;23.20;;;;;;;;;;5049468;28;20037;-74
2021/12/13 01:44:00;;;;;;;36.22;22.10;;;;;;;;;;5048737;28;20067;-74
2021/12/13 01:46:26;;;;;;;38.97;22.65;;;;;;;;;;5049373;28;20033;-74
2021/12/13 01:48:53;;;;;;;49.95;32.15;;;;;;;;;;5048403;28;20048;-74
2021/12/13 01:51:22;;;;;;;40.83;24.92;;;;;;;;;;5048010;28;20035;-74
2021/12/13 01:54:18;;;;;;;44.03;26.27;;;;;;;;;;5043215;28;20776;-74
2021/12/13 01:56:58;;;;;;;43.90;26.63;;;;;;;;;;5039951;28;20446;-74
2021/12/13 01:59:43;;;;;;;38.72;22.52;;;;;;;;;;5048766;28;20033;-74
2021/12/13 02:02:16;;;;;;;38.80;21.52;;;;;;;;;;5041805;28;20025;-74
2021/12/13 02:04:43;;;;;;;32.80;20.77;;;;;;;;;;5049135;28;20376;-74
2021/12/13 02:07:10;;;;;;;30.65;16.25;;;;;;;;;;5031969;28;20029;-75
2021/12/13 02:09:39;;;;;;;30.42;18.25;;;;;;;;;;5033366;28;20718;-74
2021/12/13 02:12:12;;;;;;;28.23;16.73;;;;;;;;;;5044310;28;20043;-74
2021/12/13 02:14:41;;;;;;;24.45;14.48;;;;;;;;;;5048492;28;20491;-74
2021/12/13 02:17:14;;;;;;;27.45;15.38;;;;;;;;;;5047501;28;20029;-74
2021/12/13 02:19:46;;;;;;;26.63;16.35;;;;;;;;;;5048254;28;20400;-74
2021/12/13 02:22:18;;;;;;;29.08;17.65;;;;;;;;;;5044907;28;20029;-74
2021/12/13 02:24:45;;;;;;;26.33;15.60;;;;;;;;;;5045506;28;20029;-74
2021/12/13 02:27:11;;;;;;;28.77;16.95;;;;;;;;;;5047786;28;20033;-74
2021/12/13 02:29:38;;;;;;;29.88;17.38;;;;;;;;;;5048379;28;20106;-75
2021/12/13 02:32:09;;;;;;;32.58;17.50;;;;;;;;;;5048079;28;20040;-74
2021/12/13 02:34:37;;;;;;;32.10;16.60;;;;;;;;;;5045343;28;20048;-74
2021/12/13 02:37:04;;;;;;;31.70;20.17;;;;;;;;;;5052111;28;20930;-74
2021/12/13 02:39:32;;;;;;;27.60;16.38;;;;;;;;;;5051816;28;20505;-74
2021/12/13 02:42:00;;;;;;;30.80;17.55;;;;;;;;;;5052081;28;20032;-74
2021/12/13 02:44:28;;;;;;;26.38;17.40;;;;;;;;;;5051388;28;20039;-74
2021/12/13 02:46:56;;;;;;;28.45;17.33;;;;;;;;;;5051705;28;20138;-74
2021/12/13 02:49:22;;;;;;;30.17;17.90;;;;;;;;;;5051852;28;20036;-74
2021/12/13 02:51:50;;;;;;;28.73;16.45;;;;;;;;;;5044508;28;20064;-74
2021/12/13 02:54:24;;;;;;;30.83;19.27;;;;;;;;;;5051471;28;20547;-74
2021/12/13 02:56:53;;;;;;;27.80;15.95;;;;;;;;;;5050116;28;20037;-74
2021/12/13 02:59:20;;;;;;;30.80;18.02;;;;;;;;;;5051278;28;20044;-74
2021/12/13 03:01:49;;;;;;;27.88;15.30;;;;;;;;;;5051508;28;20829;-74
2021/12/13 03:04:18;;;;;;;25.52;17.13;;;;;;;;;;5050940;28;20075;-75
2021/12/13 03:06:47;;;;;;;29.95;18.10;;;;;;;;;;5051531;28;20037;-74
2021/12/13 03:09:16;;;;;;;27.73;17.35;;;;;;;;;;5052346;28;20064;-74
2021/12/13 03:11:44;;;;;;;31.45;16.77;;;;;;;;;;5051207;28;20037;-74
2021/12/13 03:14:12;;;;;;;35.53;21.33;;;;;;;;;;5051560;28;20418;-74
2021/12/13 03:17:07;;;;;;;33.50;18.58;;;;;;;;;;5051281;28;20666;-74
2021/12/13 03:19:42;;;;;;;33.00;19.05;;;;;;;;;;4983962;28;20051;-74
2021/12/13 03:22:29;;;;;;;31.35;19.02;;;;;;;;;;5051102;28;20036;-74
2021/12/13 03:25:04;;;;;;;31.15;18.33;;;;;;;;;;5050711;28;20071;-74
2021/12/13 03:27:33;;;;;;;30.13;17.52;;;;;;;;;;5041814;28;20518;-74
2021/12/13 03:30:10;;;;;;;30.05;19.73;;;;;;;;;;5038147;28;20061;-74
2021/12/13 03:33:00;;;;;;;30.73;18.40;;;;;;;;;;5030948;28;20041;-74
2021/12/13 03:35:35;;;;;;;28.35;17.98;;;;;;;;;;5025729;28;20045;-74
2021/12/13 03:38:05;;;;;;;31.83;18.25;;;;;;;;;;5045947;28;20037;-74
2021/12/13 03:40:33;;;;;;;26.50;17.80;;;;;;;;;;5044987;28;20029;-74
2021/12/13 03:43:00;;;;;;;32.92;19.25;;;;;;;;;;5050887;28;20037;-74
2021/12/13 03:45:28;;;;;;;32.25;19.55;;;;;;;;;;5039454;28;20116;-74
2021/12/13 03:47:56;;;;;;;30.15;17.92;;;;;;;;;;5049795;28;20039;-74
2021/12/13 03:50:25;;;;;;;34.10;19.08;;;;;;;;;;5050020;28;20036;-74
2021/12/13 03:52:53;;;;;;;34.47;22.75;;;;;;;;;;5050279;28;20738;-74
2021/12/13 03:55:21;;;;;;;29.90;18.20;;;;;;;;;;5050289;28;20032;-74
2021/12/13 03:57:49;;;;;;;34.88;21.10;;;;;;;;;;5049733;28;20033;-74
2021/12/13 04:00:17;;;;;;;31.25;18.52;;;;;;;;;;5049955;28;20048;-74
2021/12/13 04:02:44;;;;;;;32.78;20.17;;;;;;;;;;5046592;28;20021;-74
2021/12/13 04:05:16;;;;;;;33.97;21.42;;;;;;;;;;5050762;28;20033;-73
2021/12/13 04:07:44;;;;;;;46.25;26.80;;;;;;;;;;5050290;28;20037;-74
2021/12/13 04:10:15;;;;;;;34.42;21.42;;;;;;;;;;5049479;28;20040;-74
2021/12/13 04:12:47;;;;;;;33.73;20.47;;;;;;;;;;5047763;28;20044;-74
2021/12/13 04:15:17;;;;;;;35.03;21.80;;;;;;;;;;5048447;28;20151;-74
2021/12/13 04:17:56;;;;;;;35.78;20.55;;;;;;;;;;5046651;28;20057;-74
2021/12/13 04:20:26;;;;;;;36.90;23.13;;;;;;;;;;5049279;28;20028;-74
2021/12/13 04:22:54;;;;;;;34.58;21.60;;;;;;;;;;5050174;28;20036;-74
2021/12/13 04:25:26;;;;;;;36.42;22.08;;;;;;;;;;5029922;28;20037;-74
2021/12/13 04:27:58;;;;;;;35.25;22.70;;;;;;;;;;5030772;28;20044;-74
2021/12/13 04:30:28;;;;;;;36.42;20.80;;;;;;;;;;5032636;28;20556;-74
2021/12/13 04:32:56;;;;;;;34.35;19.40;;;;;;;;;;5030138;28;20056;-74
2021/12/13 04:35:23;;;;;;;33.83;21.55;;;;;;;;;;5042773;28;20515;-74
2021/12/13 04:37:53;;;;;;;36.20;20.23;;;;;;;;;;5045018;28;20036;-74
2021/12/13 04:40:21;;;;;;;36.78;20.90;;;;;;;;;;5034626;28;20112;-74
2021/12/13 04:42:54;;;;;;;36.05;22.08;;;;;;;;;;5030047;28;20037;-74
2021/12/13 04:45:21;;;;;;;38.42;21.55;;;;;;;;;;5046047;28;20037;-74
2021/12/13 04:47:53;;;;;;;34.25;21.50;;;;;;;;;;5039145;28;20037;-74
2021/12/13 04:50:42;;;;;;;40.30;24.15;;;;;;;;;;5049821;28;20052;-74
2021/12/13 04:53:08;;;;;;;35.70;22.90;;;;;;;;;;5048667;28;20412;-74
2021/12/13 04:55:42;;;;;;;38.45;24.48;;;;;;;;;;5049155;28;20040;-74
2021/12/13 04:58:10;;;;;;;34.95;21.80;;;;;;;;;;5049102;28;20029;-74
2021/12/13 05:00:39;;;;;;;41.42;21.38;;;;;;;;;;5049617;28;20044;-74
2021/12/13 05:03:07;;;;;;;37.03;21.08;;;;;;;;;;5049120;28;20437;-74
2021/12/13 05:05:34;;;;;;;31.13;18.33;;;;;;;;;;5049568;28;20534;-74
2021/12/13 05:08:00;;;;;;;32.47;19.13;;;;;;;;;;5047506;28;20480;-74
2021/12/13 05:10:27;;;;;;;31.73;18.65;;;;;;;;;;5048968;28;20031;-74
2021/12/13 05:12:58;;;;;;;33.67;20.75;;;;;;;;;;5047012;28;20045;-74
2021/12/13 05:15:26;;;;;;;41.13;21.95;;;;;;;;;;5038400;28;20036;-74
2021/12/13 05:17:53;;;;;;;40.63;26.15;;;;;;;;;;5048137;28;20367;-74
2021/12/13 05:20:24;;;;;;;42.55;26.77;;;;;;;;;;5046901;28;20566;-75
2021/12/13 05:22:55;;;;;;;40.60;26.27;;;;;;;;;;5049248;28;20037;-74
2021/12/13 05:25:23;;;;;;;39.05;24.75;;;;;;;;;;5047897;28;20083;-74
2021/12/13 05:27:56;;;;;;;42.08;23.48;;;;;;;;;;5047557;28;20041;-74
2021/12/13 05:30:23;;;;;;;39.85;24.70;;;;;;;;;;5036144;28;20044;-74
2021/12/13 05:32:52;;;;;;;39.10;24.35;;;;;;;;;;5048874;28;20041;-74
2021/12/13 05:35:20;;;;;;;39.38;25.73;;;;;;;;;;5036223;28;20859;-74
2021/12/13 05:37:48;;;;;;;38.85;26.02;;;;;;;;;;5048927;28;20036;-74
2021/12/13 05:40:16;;;;;;;36.25;23.67;;;;;;;;;;5046974;28;20048;-74
2021/12/13 05:43:03;;;;;;;42.75;25.92;;;;;;;;;;5048820;28;20041;-74
2021/12/13 05:45:43;;;;;;;39.47;21.88;;;;;;;;;;5039134;28;20033;-74
2021/12/13 05:48:15;;;;;;;37.45;23.67;;;;;;;;;;5048868;28;20123;-74
2021/12/13 05:50:42;;;;;;;39.50;23.63;;;;;;;;;;5046453;28;20025;-74
2021/12/13 05:53:10;;;;;;;39.35;24.55;;;;;;;;;;5048329;28;20187;-74
2021/12/13 05:55:52;;;;;;;35.80;22.42;;;;;;;;;;5045461;28;20040;-74
2021/12/13 05:58:47;;;;;;;40.65;24.42;;;;;;;;;;5028880;28;20037;-74
2021/12/13 06:01:13;;;;;;;39.95;24.38;;;;;;;;;;5012004;28;20063;-74
2021/12/13 06:03:42;;;;;;;38.03;21.63;;;;;;;;;;5049260;28;20029;-74
2021/12/13 06:06:13;;;;;;;35.47;24.92;;;;;;;;;;5048279;28;20040;-74
2021/12/13 06:08:41;;;;;;;39.45;22.15;;;;;;;;;;5048030;28;20357;-74
2021/12/13 06:11:12;;;;;;;37.28;23.33;;;;;;;;;;5047555;28;20862;-74
2021/12/13 06:13:46;;;;;;;37.35;24.20;;;;;;;;;;5033796;28;20036;-75
2021/12/13 06:16:33;;;;;;;33.75;22.55;;;;;;;;;;5045890;28;20071;-74
2021/12/13 06:19:12;;;;;;;32.28;21.75;;;;;;;;;;5043217;28;20035;-74
2021/12/13 06:21:41;;;;;;;36.45;23.50;;;;;;;;;;5061954;28;20056;-74
2021/12/13 06:24:08;;;;;;;35.35;22.23;;;;;;;;;;5032985;28;20040;-74
2021/12/13 06:26:34;;;;;;;44.05;25.42;;;;;;;;;;5045156;28;20090;-74
2021/12/13 06:29:02;;;;;;;34.50;23.17;;;;;;;;;;5042102;28;20143;-74
2021/12/13 06:31:39;;;;;;;43.67;25.75;;;;;;;;;;5042203;28;20033;-74
2021/12/13 06:34:08;;;;;;;44.63;25.33;;;;;;;;;;5035948;28;20041;-74
2021/12/13 06:36:39;;;;;;;40.58;27.55;;;;;;;;;;5038296;28;20083;-74
2021/12/13 06:39:05;;;;;;;39.25;24.95;;;;;;;;;;5043996;28;20128;-73
2021/12/13 06:41:50;;;;;;;46.30;28.35;;;;;;;;;;5044294;28;20069;-75
2021/12/13 06:44:22;;;;;;;56.00;32.05;;;;;;;;;;5031086;28;20044;-75
2021/12/13 06:47:00;;;;;;;52.72;30.75;;;;;;;;;;5047473;28;20031;-74
2021/12/13 06:49:26;;;;;;;58.05;34.75;;;;;;;;;;5042696;28;20048;-74
2021/12/13 06:51:55;;;;;;;60.63;33.25;;;;;;;;;;5048223;28;20029;-75
2021/12/13 06:54:27;;;;;;;68.10;37.85;;;;;;;;;;5045168;28;20130;-75
2021/12/13 06:56:53;;;;;;;;;;;;;;;;;;5033374;28;20472;-75
2021/12/13 06:59:19;;;;;;;67.40;37.35;;;;;;;;;;5043877;28;19916;-75
2021/12/13 07:01:56;;;;;;;60.22;34.15;;;;;;;;;;5047693;28;20083;-75
2021/12/13 07:04:22;;;;;;;60.33;35.47;;;;;;;;;;5046508;28;20430;-74
2021/12/13 07:06:49;;;;;;;67.22;38.92;;;;;;;;;;5033254;28;20033;-74
2021/12/13 07:09:23;;;;;;;69.15;37.38;;;;;;;;;;5043245;28;20037;-75
2021/12/13 07:11:51;;;;;;;64.50;32.95;;;;;;;;;;5048344;28;20037;-74
2021/12/13 07:14:19;;;;;;;61.45;31.75;;;;;;;;;;5052211;28;20052;-75
2021/12/13 07:16:49;;;;;;;72.18;41.60;;;;;;;;;;5048842;28;20039;-74
2021/12/13 07:19:22;;;;;;;64.30;34.60;;;;;;;;;;5043015;28;20811;-76
2021/12/13 07:21:51;;;;;;;59.30;33.42;;;;;;;;;;5051064;28;20048;-76
2021/12/13 07:24:33;;;;;;;63.55;33.00;;;;;;;;;;5045142;28;20119;-75
2021/12/13 07:27:06;;;;;;;54.55;32.75;;;;;;;;;;5049528;28;20035;-75
2021/12/13 07:29:37;;;;;;;52.35;31.25;;;;;;;;;;5040577;28;20029;-75
2021/12/13 07:32:22;;;;;;;54.13;31.38;;;;;;;;;;5043788;28;20054;-75
2021/12/13 07:34:54;;;;;;;70.25;40.28;;;;;;;;;;5055847;28;20037;-74
2021/12/13 07:37:40;;;;;;;61.13;33.15;;;;;;;;;;5047237;28;20029;-75
2021/12/13 07:40:25;;;;;;;68.85;37.30;;;;;;;;;;5028145;28;20041;-75
2021/12/13 07:42:53;;;;;;;75.63;38.85;;;;;;;;;;5048009;28;20044;-75
2021/12/13 07:45:28;;;;;;;100.47;48.88;;;;;;;;;;5050748;28;20498;-75
2021/12/13 07:47:56;;;;;;;87.88;44.50;;;;;;;;;;5049627;28;20364;-75
2021/12/13 07:50:23;;;;;;;97.30;48.85;;;;;;;;;;5048532;28;20071;-75
2021/12/13 07:52:54;;;;;;;93.90;49.00;;;;;;;;;;5050163;28;20037;-75
2021/12/13 07:55:22;;;;;;;93.70;48.25;;;;;;;;;;5050982;28;20047;-75
2021/12/13 07:57:49;;;;;;;86.40;45.63;;;;;;;;;;5043997;28;20033;-75
2021/12/13 08:00:21;;;;;;;96.85;55.53;;;;;;;;;;5046853;28;20044;-75
2021/12/13 08:02:58;;;;;;;85.75;46.58;;;;;;;;;;5052597;28;20025;-75
2021/12/13 08:05:25;;;;;;;132.43;62.28;;;;;;;;;;5050927;28;20040;-75
2021/12/13 08:07:54;;;;;;;136.73;68.38;;;;;;;;;;5053072;28;20819;-75
2021/12/13 08:10:25;;;;;;;136.93;69.45;;;;;;;;;;5046093;28;20037;-75
2021/12/13 08:12:55;;;;;;;97.47;48.20;;;;;;;;;;5050729;28;20056;-75
2021/12/13 08:15:21;;;;;;;118.05;63.35;;;;;;;;;;5050489;28;20120;-75
2021/12/13 08:17:59;;;;;;;106.13;55.45;;;;;;;;;;5049607;28;20870;-75
2021/12/13 08:20:29;;;;;;;89.43;49.65;;;;;;;;;;5046549;28;20032;-75
2021/12/13 08:22:56;;;;;;;90.78;46.17;;;;;;;;;;5040402;28;20381;-75
2021/12/13 08:25:25;;;;;;;85.20;47.65;;;;;;;;;;5048684;28;20120;-75
2021/12/13 08:27:56;;;;;;;76.97;46.17;;;;;;;;;;5058113;28;20034;-76
2021/12/13 08:30:25;;;;;;;117.07;59.05;;;;;;;;;;5051301;28;20144;-75
2021/12/13 08:33:00;;;;;;;101.40;53.42;;;;;;;;;;5040309;28;20037;-75
2021/12/13 08:35:26;;;;;;;93.25;52.22;;;;;;;;;;5047717;28;20041;-75
2021/12/13 08:37:59;;;;;;;80.63;47.70;;;;;;;;;;5055095;28;20037;-75
2021/12/13 08:40:28;;;;;;;77.25;46.60;;;;;;;;;;5046162;28;20025;-75
2021/12/13 08:42:57;;;;;;;71.68;41.33;;;;;;;;;;5060404;28;20642;-76
2021/12/13 08:45:42;;;;;;;68.22;40.55;;;;;;;;;;5052516;28;20051;-76
2021/12/13 08:48:12;;;;;;;59.08;35.97;;;;;;;;;;5047746;28;20052;-75
2021/12/13 08:50:46;;;;;;;67.18;35.67;;;;;;;;;;5047846;28;20032;-76
2021/12/13 08:53:35;;;;;;;62.30;34.70;;;;;;;;;;5042543;28;20498;-75
2021/12/13 08:56:06;;;;;;;66.50;38.75;;;;;;;;;;5051559;28;20033;-75
2021/12/13 08:58:34;;;;;;;62.95;36.25;;;;;;;;;;5045657;28;20498;-75
2021/12/13 09:01:10;;;;;;;70.35;40.67;;;;;;;;;;5052872;28;20145;-76
2021/12/13 09:03:36;;;;;;;71.35;41.55;;;;;;;;;;5056271;28;20819;-75
2021/12/13 09:06:08;;;;;;;70.50;38.13;;;;;;;;;;5047996;28;20036;-75
2021/12/13 09:08:37;;;;;;;72.00;37.90;;;;;;;;;;5043842;28;20124;-76
2021/12/13 09:11:19;;;;;;;72.25;37.70;;;;;;;;;;5051438;28;20665;-76
2021/12/13 09:13:45;;;;;;;65.93;36.58;;;;;;;;;;5066126;28;20147;-76
2021/12/13 09:16:13;;;;;;;66.68;41.67;;;;;;;;;;5046954;28;20805;-75
2021/12/13 09:18:40;;;;;;;59.55;37.35;;;;;;;;;;5056843;28;20864;-76
2021/12/13 09:21:07;;;;;;;61.22;36.05;;;;;;;;;;5048074;28;20055;-74
2021/12/13 09:23:45;;;;;;;59.25;35.47;;;;;;;;;;5052042;28;20037;-75
2021/12/13 09:26:16;;;;;;;65.22;38.95;;;;;;;;;;5053005;28;20757;-75
2021/12/13 09:28:45;;;;;;;55.27;30.20;;;;;;;;;;5054128;28;20078;-74
2021/12/13 09:31:18;;;;;;;56.75;35.22;;;;;;;;;;5057173;28;20032;-76
2021/12/13 09:33:49;;;;;;;57.40;32.20;;;;;;;;;;5042547;28;20033;-75
2021/12/13 09:36:27;;;;;;;56.47;34.63;;;;;;;;;;5054617;28;20395;-76
2021/12/13 09:38:58;;;;;;;51.30;31.85;;;;;;;;;;5050385;28;20725;-76
2021/12/13 09:44:11;;;;;;;67.78;40.72;;;;;;;;;;5076371;28;20691;-76
2021/12/13 09:46:56;;;;;;;74.75;44.88;;;;;;;;;;5075141;28;20040;-75
2021/12/13 09:49:28;;;;;;;62.22;40.03;;;;;;;;;;5076969;28;20027;-75
2021/12/13 09:51:55;;;;;;;55.50;35.78;;;;;;;;;;5080948;28;20028;-75
2021/12/13 09:54:25;;;;;;;69.60;43.70;;;;;;;;;;5081764;28;20052;-75
2021/12/13 09:56:53;;;;;;;81.80;51.97;;;;;;;;;;5068289;28;20028;-75
2021/12/13 09:59:30;;;;;;;76.30;46.35;;;;;;;;;;5075420;28;20028;-75
2021/12/13 10:01:57;;;;;;;69.10;43.88;;;;;;;;;;5078772;28;20047;-75
2021/12/13 10:04:33;;;;;;;61.50;40.47;;;;;;;;;;5085689;28;20034;-75
2021/12/13 10:07:10;;;;;;;61.80;39.90;;;;;;;;;;5072322;28;20044;-75
2021/12/13 10:09:40;;;;;;;63.70;41.50;;;;;;;;;;5079772;28;20028;-75
2021/12/13 10:12:28;;;;;;;71.47;43.63;;;;;;;;;;5066274;28;20122;-76
2021/12/13 10:14:59;;;;;;;80.68;50.30;;;;;;;;;;5076221;28;20378;-75
2021/12/13 10:17:28;;;;;;;68.63;42.40;;;;;;;;;;5079101;28;20112;-75
2021/12/13 10:19:55;;;;;;;80.82;47.25;;;;;;;;;;5065232;28;20034;-75
2021/12/13 10:22:25;;;;;;;73.55;45.67;;;;;;;;;;5078345;28;20574;-75
2021/12/13 10:24:54;;;;;;;64.18;41.78;;;;;;;;;;5077627;28;20039;-75
2021/12/13 10:27:21;;;;;;;55.38;32.60;;;;;;;;;;5084430;28;20036;-75
2021/12/13 10:29:49;;;;;;;53.92;35.55;;;;;;;;;;5066769;28;20470;-75
2021/12/13 10:32:23;;;;;;;51.70;31.95;;;;;;;;;;5074054;28;20096;-75
2021/12/13 10:34:51;;;;;;;62.15;38.35;;;;;;;;;;5078883;28;20470;-75
2021/12/13 10:37:19;;;;;;;47.97;30.30;;;;;;;;;;5073455;28;20041;-76
2021/12/13 10:39:50;;;;;;;44.83;28.02;;;;;;;;;;5081827;28;20471;-75
2021/12/13 10:42:22;;;;;;;40.15;22.20;;;;;;;;;;5071589;28;20796;-75
2021/12/13 10:44:48;;;;;;;40.85;25.08;;;;;;;;;;5078291;28;20355;-75
2021/12/13 10:47:18;;;;;;;39.15;25.00;;;;;;;;;;5081475;28;20075;-76
2021/12/13 10:49:45;;;;;;;44.30;27.00;;;;;;;;;;5055628;28;20039;-75
2021/12/13 10:52:14;;;;;;;39.33;23.38;;;;;;;;;;5070054;28;20123;-75
2021/12/13 10:54:43;;;;;;;42.63;26.17;;;;;;;;;;5086366;28;20032;-76
2021/12/13 10:57:32;;;;;;;44.20;28.17;;;;;;;;;;5064669;28;20575;-75
2021/12/13 11:00:00;;;;;;;72.75;43.40;;;;;;;;;;5076993;28;20035;-75
2021/12/13 11:02:30;;;;;;;88.70;49.47;;;;;;;;;;5064734;28;20081;-75
2021/12/13 11:05:10;;;;;;;63.88;37.75;;;;;;;;;;5085415;28;20016;-75
2021/12/13 11:07:36;;;;;;;51.70;29.48;;;;;;;;;;5070105;28;20036;-75
2021/12/13 11:10:04;;;;;;;51.08;30.17;;;;;;;;;;5070937;28;20035;-76
2021/12/13 11:12:33;;;;;;;49.17;31.58;;;;;;;;;;5072029;28;20142;-75
2021/12/13 11:15:00;;;;;;;58.65;38.65;;;;;;;;;;5084748;28;20020;-76
2021/12/13 11:17:27;;;;;;;65.88;42.45;;;;;;;;;;5062062;28;20052;-76
2021/12/13 11:19:56;;;;;;;66.65;39.03;;;;;;;;;;5091235;28;20102;-76
2021/12/13 11:22:24;;;;;;;69.55;42.15;;;;;;;;;;5066629;28;20040;-75
2021/12/13 11:24:52;;;;;;;51.15;33.72;;;;;;;;;;5090983;28;20024;-75
2021/12/13 11:27:22;;;;;;;53.10;36.50;;;;;;;;;;5072465;28;20044;-75
2021/12/13 11:29:50;;;;;;;52.13;35.47;;;;;;;;;;5088031;28;20025;-75
2021/12/13 11:32:48;;;;;;;48.25;34.22;;;;;;;;;;5097326;22;20024;-82
2021/12/13 11:35:31;;;;;;;49.15;32.88;;;;;;;;;;5071146;28;20149;-83
2021/12/13 11:38:06;;;;;;;53.08;35.95;;;;;;;;;;5070888;28;20028;-83
2021/12/13 11:40:51;;;;;;;41.38;27.83;;;;;;;;;;5084794;28;20086;-81
2021/12/13 11:43:26;;;;;;;49.15;33.47;;;;;;;;;;5065881;28;20667;-81
2021/12/13 11:46:11;;;;;;;49.83;36.08;;;;;;;;;;5066979;28;20037;-79
2021/12/13 11:48:37;;;;;;;44.78;28.23;;;;;;;;;;5063607;28;20127;-82
2021/12/13 11:51:23;;;;;;;50.92;32.92;;;;;;;;;;5085895;28;20036;-78
2021/12/13 11:54:08;;;;;;;55.42;36.55;;;;;;;;;;5086755;28;20082;-81
2021/12/13 11:56:53;;;;;;;53.80;32.15;;;;;;;;;;5072123;28;20732;-81
2021/12/13 11:59:35;;;;;;;53.25;33.85;;;;;;;;;;5078457;28;20047;-80
2021/12/13 12:02:08;;;;;;;54.22;32.35;;;;;;;;;;5082550;28;20031;-82
2021/12/13 12:04:53;;;;;;;53.53;34.90;;;;;;;;;;5070354;28;20032;-80
2021/12/13 12:07:32;;;;;;;55.40;36.50;;;;;;;;;;5083585;28;20040;-81
2021/12/13 12:10:10;;;;;;;58.08;34.92;;;;;;;;;;5084293;28;20386;-81
2021/12/13 12:12:55;;;;;;;49.90;33.45;;;;;;;;;;5082663;28;20033;-83
2021/12/13 12:15:23;;;;;;;54.80;36.15;;;;;;;;;;5087639;23;20931;-75
2021/12/13 12:17:50;;;;;;;69.60;41.92;;;;;;;;;;5098805;28;20032;-75
2021/12/13 12:20:18;;;;;;;66.18;43.67;;;;;;;;;;5109165;28;20110;-75
2021/12/13 12:22:50;;;;;;;55.22;38.42;;;;;;;;;;5108168;28;20031;-75
2021/12/13 12:25:16;;;;;;;55.30;37.75;;;;;;;;;;5104735;28;20035;-75
2021/12/13 12:27:43;;;;;;;55.30;39.03;;;;;;;;;;5106192;28;20085;-76
2021/12/13 12:30:18;;;;;;;65.65;43.28;;;;;;;;;;5107537;28;20028;-75
2021/12/13 12:32:46;;;;;;;60.50;38.38;;;;;;;;;;5103231;28;20204;-75
2021/12/13 12:35:17;;;;;;;55.85;39.35;;;;;;;;;;5102602;28;20067;-75
2021/12/13 12:38:03;;;;;;;62.72;41.78;;;;;;;;;;5105221;28;20027;-76
2021/12/13 12:40:38;;;;;;;61.55;40.53;;;;;;;;;;5098057;28;20492;-75
2021/12/13 12:43:07;;;;;;;67.40;41.38;;;;;;;;;;5104536;28;20350;-75
2021/12/13 12:45:36;;;;;;;63.70;43.47;;;;;;;;;;5103183;28;20352;-75
2021/12/13 12:48:05;;;;;;;51.70;32.47;;;;;;;;;;5106140;28;20114;-75
2021/12/13 12:50:40;;;;;;;57.88;36.22;;;;;;;;;;5104358;28;20143;-76
2021/12/13 12:53:12;;;;;;;59.95;38.58;;;;;;;;;;5101176;28;20024;-75
2021/12/13 12:55:41;;;;;;;64.85;44.15;;;;;;;;;;5104748;28;20036;-75
2021/12/13 12:58:12;;;;;;;64.40;42.53;;;;;;;;;;5107812;28;20026;-75
2021/12/13 13:00:39;;;;;;;60.00;39.75;;;;;;;;;;5106071;28;20038;-75
2021/12/13 13:03:05;;;;;;;74.05;46.42;;;;;;;;;;5089661;28;20059;-76
2021/12/13 13:05:32;;;;;;;57.38;38.97;;;;;;;;;;5101809;28;20043;-75
2021/12/13 13:07:58;;;;;;;70.30;45.20;;;;;;;;;;5104483;28;20024;-75
2021/12/13 13:10:26;;;;;;;77.93;50.65;;;;;;;;;;5100357;28;20628;-75
2021/12/13 13:12:55;;;;;;;74.38;46.65;;;;;;;;;;5100636;28;20031;-75
2021/12/13 13:15:23;;;;;;;62.60;40.05;;;;;;;;;;5089781;28;20083;-75
2021/12/13 13:17:51;;;;;;;69.78;45.45;;;;;;;;;;5099310;28;20030;-75
2021/12/13 13:20:23;;;;;;;86.00;54.20;;;;;;;;;;5098079;28;20036;-75
2021/12/13 13:22:51;;;;;;;74.15;44.75;;;;;;;;;;5103947;28;20023;-74
2021/12/13 13:25:18;;;;;;;67.13;43.50;;;;;;;;;;5106701;28;20225;-75
2021/12/13 13:27:44;;;;;;;73.80;45.92;;;;;;;;;;5081696;28;20028;-75
2021/12/13 13:30:14;;;;;;;72.55;46.13;;;;;;;;;;5103548;28;20400;-75
2021/12/13 13:32:40;;;;;;;80.82;49.10;;;;;;;;;;5103151;28;20140;-75
2021/12/13 13:35:07;;;;;;;70.85;45.78;;;;;;;;;;5096878;28;20040;-74
2021/12/13 13:37:34;;;;;;;65.47;41.47;;;;;;;;;;5084215;28;20386;-74
2021/12/13 13:40:06;;;;;;;68.18;42.92;;;;;;;;;;5104659;28;20032;-75
2021/12/13 13:42:43;;;;;;;64.90;44.33;;;;;;;;;;5101406;28;20031;-75
2021/12/13 13:45:11;;;;;;;58.65;36.08;;;;;;;;;;5097222;28;20339;-74
2021/12/13 13:47:38;;;;;;;64.20;39.97;;;;;;;;;;5100106;28;20106;-75
2021/12/13 13:50:17;;;;;;;61.72;42.20;;;;;;;;;;5083213;28;20155;-75
2021/12/13 13:52:44;;;;;;;63.83;40.90;;;;;;;;;;5106961;28;20028;-75
2021/12/13 13:55:29;;;;;;;66.90;41.13;;;;;;;;;;5101453;28;20035;-75
2021/12/13 13:57:59;;;;;;;81.28;46.28;;;;;;;;;;5102365;28;20051;-75
2021/12/13 14:00:31;;;;;;;72.05;44.22;;;;;;;;;;5100938;28;20112;-74
2021/12/13 14:02:57;;;;;;;59.45;36.15;;;;;;;;;;5103134;28;20601;-75
2021/12/13 14:05:23;;;;;;;62.00;38.05;;;;;;;;;;5101254;28;20036;-75
2021/12/13 14:07:50;;;;;;;67.47;41.97;;;;;;;;;;5083366;28;20032;-75
2021/12/13 14:10:15;;;;;;;71.60;45.25;;;;;;;;;;5103449;28;20067;-75
2021/12/13 14:12:54;;;;;;;77.32;44.72;;;;;;;;;;5100290;28;20825;-75
2021/12/13 14:15:20;;;;;;;80.45;49.30;;;;;;;;;;5094471;28;20069;-75
2021/12/13 14:17:49;;;;;;;80.10;46.33;;;;;;;;;;5104284;28;20024;-75
2021/12/13 14:20:15;;;;;;;83.90;50.92;;;;;;;;;;5104673;28;20160;-74
2021/12/13 14:22:42;;;;;;;76.82;49.00;;;;;;;;;;5105219;28;20031;-75
2021/12/13 14:25:08;;;;;;;73.93;46.00;;;;;;;;;;5099395;28;20024;-75
2021/12/13 14:27:35;;;;;;;81.93;47.40;;;;;;;;;;5106666;28;20076;-75
2021/12/13 14:30:11;;;;;;;74.63;44.17;;;;;;;;;;5106882;28;20462;-74
2021/12/13 14:32:37;;;;;;;73.82;43.90;;;;;;;;;;5098554;28;20389;-74
2021/12/13 14:35:17;;;;;;;73.00;43.42;;;;;;;;;;5113263;28;20027;-74
2021/12/13 14:37:44;;;;;;;68.72;42.38;;;;;;;;;;5085046;28;20601;-74
2021/12/13 14:40:10;;;;;;;70.93;42.60;;;;;;;;;;5113442;28;20028;-74
2021/12/13 14:42:37;;;;;;;75.75;44.53;;;;;;;;;;5111566;28;20036;-74
2021/12/13 14:45:06;;;;;;;74.78;45.75;;;;;;;;;;5112849;28;20054;-74
2021/12/13 14:47:39;;;;;;;79.43;44.75;;;;;;;;;;5105140;28;20032;-74
2021/12/13 14:50:22;;;;;;;75.13;42.70;;;;;;;;;;5103924;28;20043;-75